Terminal Aerodrome Forecast
Issued by NWS El Paso, TX

Home | Current Version | Previous Version | Text Only | Print | Product List | Glossary On
Versions: 1 2 3 4 5 6 7 8 9 10 11 12 13
000
FTUS44 KEPZ 272321
TAFELP
TAF
KELP 272321Z 2800/2824 25012G20KT P6SM SCT150 BKN250
     FM280600 23011KT P6SM BKN150 OVC250 WS012/24033KT
     FM281600 22017G24KT P6SM SCT120 BKN150 OVC250
     FM281800 24030G39KT 6SM BLDU FEW120 SCT150 BKN250
     FM282100 25035G45KT 4SM BLDU SCT120=

USA.gov is the U.S. government's official web portal to all federal, state and local government web resources and services.